Time,TemperatureF,DewpointF,PressureIn,WindDirection,WindDirectionDegrees,WindSpeedMPH,WindSpeedGustMPH,Humidity,HourlyPrecipIn,Conditions,Clouds,dailyrainin,SolarRadiationWatts/m^2,SoftwareType,DateUTC
2013-10-04 00:05:00,71.0,69.0,-100.00,SE,146,4.0,6.0,95,0.00,,,0.00,0.000000,,2013-10-04 05:05:00,
2013-10-04 00:50:00,71.0,69.0,-100.00,SE,146,4.0,6.0,95,0.00,,,0.00,0.000000,,2013-10-04 05:50:00,
2013-10-04 00:59:00,71.0,69.0,-100.00,SE,146,4.0,6.0,95,0.00,,,0.00,0.000000,,2013-10-04 05:59:00,
2013-10-04 01:05:00,71.0,70.0,-100.00,ESE,122,2.0,5.0,96,0.00,,,0.00,0.000000,,2013-10-04 06:05:00,
2013-10-04 01:49:00,71.0,70.0,-100.00,ESE,122,2.0,5.0,96,0.00,,,0.00,0.000000,,2013-10-04 06:49:00,
2013-10-04 01:58:00,71.0,70.0,-100.00,ESE,122,2.0,5.0,96,0.00,,,0.00,0.000000,,2013-10-04 06:58:00,
2013-10-04 02:05:00,70.0,69.0,-100.00,East,91,2.0,4.0,96,0.00,,,0.00,0.000000,,2013-10-04 07:05:00,
2013-10-04 02:48:00,70.0,69.0,-100.00,East,91,2.0,4.0,96,0.00,,,0.00,0.000000,,2013-10-04 07:48:00,
2013-10-04 02:58:00,70.0,69.0,-100.00,East,91,2.0,4.0,96,0.00,,,0.00,0.000000,,2013-10-04 07:58:00,
2013-10-04 03:05:00,70.0,69.0,-100.00,NE,35,2.0,3.0,96,0.00,,,0.00,0.000000,,2013-10-04 08:05:00,
2013-10-04 03:48:00,70.0,69.0,-100.00,NE,35,2.0,3.0,96,0.00,,,0.00,0.000000,,2013-10-04 08:48:00,
2013-10-04 03:58:00,70.0,69.0,-100.00,NE,35,2.0,3.0,96,0.00,,,0.00,0.000000,,2013-10-04 08:58:00,
2013-10-04 04:05:00,70.0,69.0,-100.00,East,80,2.0,5.0,96,0.00,,,0.00,0.000000,,2013-10-04 09:05:00,
2013-10-04 04:51:00,70.0,69.0,-100.00,East,80,2.0,5.0,96,0.00,,,0.00,0.000000,,2013-10-04 09:51:00,
2013-10-04 05:00:00,70.0,69.0,-100.00,East,80,2.0,5.0,96,0.00,,,0.00,0.000000,,2013-10-04 10:00:00,
2013-10-04 05:05:00,70.0,69.0,-100.00,ENE,58,1.0,4.0,96,0.00,,,0.00,0.000000,,2013-10-04 10:05:00,
2013-10-04 05:51:00,70.0,69.0,-100.00,ENE,58,1.0,4.0,96,0.00,,,0.00,0.000000,,2013-10-04 10:51:00,
2013-10-04 06:00:00,70.0,69.0,-100.00,ENE,58,1.0,4.0,96,0.00,,,0.00,0.000000,,2013-10-04 11:00:00,
2013-10-04 06:05:00,70.0,69.0,-100.00,ENE,71,3.0,5.0,96,0.00,,,0.00,0.000000,,2013-10-04 11:05:00,
2013-10-04 06:51:00,70.0,69.0,-100.00,ENE,71,3.0,5.0,96,0.00,,,0.00,0.000000,,2013-10-04 11:51:00,
2013-10-04 07:00:00,70.0,69.0,-100.00,ENE,71,3.0,5.0,96,0.00,,,0.00,0.000000,,2013-10-04 12:00:00,
2013-10-04 07:05:00,70.0,69.0,-100.00,ENE,66,2.0,5.0,97,0.00,,,0.00,0.000000,,2013-10-04 12:05:00,
2013-10-04 07:50:00,70.0,69.0,-100.00,ENE,66,2.0,5.0,97,0.00,,,0.00,0.000000,,2013-10-04 12:50:00,
2013-10-04 08:00:00,70.0,69.0,-100.00,ENE,66,2.0,5.0,97,0.00,,,0.00,0.000000,,2013-10-04 13:00:00,
2013-10-04 08:05:00,72.0,71.0,-100.00,ENE,59,3.0,6.0,97,0.00,,,0.00,18.000000,,2013-10-04 13:05:00,
2013-10-04 08:50:00,72.0,71.0,-100.00,ENE,59,3.0,6.0,97,0.00,,,0.00,18.000000,,2013-10-04 13:50:00,
2013-10-04 08:59:00,72.0,71.0,-100.00,ENE,59,3.0,6.0,97,0.00,,,0.00,18.000000,,2013-10-04 13:59:00,
2013-10-04 09:05:00,74.0,73.0,-100.00,East,79,2.0,5.0,97,0.00,,,0.00,82.000000,,2013-10-04 14:05:00,
2013-10-04 09:51:00,74.0,73.0,-100.00,East,79,2.0,5.0,97,0.00,,,0.00,82.000000,,2013-10-04 14:51:00,
2013-10-04 10:00:00,74.0,73.0,-100.00,East,79,2.0,5.0,97,0.00,,,0.00,82.000000,,2013-10-04 15:00:00,
2013-10-04 10:05:00,77.0,76.0,-100.00,SE,127,4.0,7.0,96,0.00,,,0.00,193.000000,,2013-10-04 15:05:00,
2013-10-04 10:51:00,77.0,76.0,-100.00,SE,127,4.0,7.0,96,0.00,,,0.00,193.000000,,2013-10-04 15:51:00,
2013-10-04 11:00:00,77.0,76.0,-100.00,SE,127,4.0,7.0,96,0.00,,,0.00,193.000000,,2013-10-04 16:00:00,
2013-10-04 11:05:00,79.0,76.0,-100.00,East,101,3.0,6.0,92,0.00,,,0.00,202.000000,,2013-10-04 16:05:00,
2013-10-04 11:51:00,79.0,76.0,-100.00,East,101,3.0,6.0,92,0.00,,,0.00,202.000000,,2013-10-04 16:51:00,
2013-10-04 12:00:00,79.0,76.0,-100.00,East,101,3.0,6.0,92,0.00,,,0.00,202.000000,,2013-10-04 17:00:00,
2013-10-04 12:05:00,84.0,78.0,-100.00,ESE,113,4.0,9.0,81,0.00,,,0.00,369.000000,,2013-10-04 17:05:00,
2013-10-04 13:02:00,84.0,78.0,-100.00,ESE,113,4.0,9.0,81,0.00,,,0.00,369.000000,,2013-10-04 18:02:00,
2013-10-04 13:53:00,82.0,74.0,-100.00,ESE,118,4.0,10.0,78,0.01,,,0.01,272.000000,,2013-10-04 18:53:00,
2013-10-04 14:02:00,82.0,74.0,-100.00,ESE,118,4.0,10.0,78,0.01,,,0.01,272.000000,,2013-10-04 19:02:00,
2013-10-04 14:43:00,77.0,74.0,-100.00,SE,129,4.0,17.0,92,0.26,,,0.27,79.000000,,2013-10-04 19:43:00,
2013-10-04 14:52:00,77.0,74.0,-100.00,SE,129,4.0,17.0,92,0.26,,,0.27,79.000000,,2013-10-04 19:52:00,
2013-10-04 15:02:00,77.0,74.0,-100.00,SE,129,4.0,17.0,92,0.26,,,0.27,79.000000,,2013-10-04 20:02:00,
2013-10-04 15:43:00,83.0,79.0,-100.00,East,99,4.0,7.0,89,0.00,,,0.27,391.000000,,2013-10-04 20:43:00,
2013-10-04 15:53:00,83.0,79.0,-100.00,East,99,4.0,7.0,89,0.00,,,0.27,391.000000,,2013-10-04 20:53:00,
2013-10-04 16:01:00,83.0,79.0,-100.00,East,99,4.0,7.0,89,0.00,,,0.27,391.000000,,2013-10-04 21:01:00,
2013-10-04 16:43:00,87.0,78.0,-100.00,South,174,2.0,7.0,76,0.00,,,0.27,524.000000,,2013-10-04 21:43:00,
2013-10-04 16:54:00,87.0,78.0,-100.00,South,174,2.0,7.0,76,0.00,,,0.27,524.000000,,2013-10-04 21:54:00,
2013-10-04 17:03:00,87.0,78.0,-100.00,South,174,2.0,7.0,76,0.00,,,0.27,524.000000,,2013-10-04 22:03:00,
2013-10-04 17:43:00,86.0,78.0,-100.00,South,170,6.0,13.0,76,0.00,,,0.27,295.000000,,2013-10-04 22:43:00,
2013-10-04 17:52:00,86.0,78.0,-100.00,South,170,6.0,13.0,76,0.00,,,0.27,295.000000,,2013-10-04 22:52:00,
2013-10-04 18:03:00,86.0,78.0,-100.00,South,170,6.0,13.0,76,0.00,,,0.27,295.000000,,2013-10-04 23:03:00,
2013-10-04 19:42:00,79.0,75.0,-100.00,SSE,148,5.0,10.0,87,-99.99,,,0.27,26.000000,,2013-10-05 00:42:00,
2013-10-04 19:53:00,79.0,75.0,-100.00,SSE,148,5.0,10.0,87,-99.99,,,0.27,26.000000,,2013-10-05 00:53:00,
2013-10-04 20:02:00,79.0,75.0,-100.00,SSE,148,5.0,10.0,87,-99.99,,,0.27,26.000000,,2013-10-05 01:02:00,
2013-10-04 20:43:00,78.0,75.0,-100.00,SSE,148,5.0,12.0,91,0.00,,,0.27,0.000000,,2013-10-05 01:43:00,
2013-10-04 20:52:00,78.0,75.0,-100.00,SSE,148,5.0,12.0,91,0.00,,,0.27,0.000000,,2013-10-05 01:52:00,
2013-10-04 21:02:00,78.0,75.0,-100.00,SSE,148,5.0,12.0,91,0.00,,,0.27,0.000000,,2013-10-05 02:02:00,
2013-10-04 21:42:00,76.0,74.0,-100.00,SSE,149,5.0,9.0,93,0.00,,,0.27,0.000000,,2013-10-05 02:42:00,
2013-10-04 21:52:00,76.0,74.0,-100.00,SSE,149,5.0,9.0,93,0.00,,,0.27,0.000000,,2013-10-05 02:52:00,
2013-10-04 22:02:00,76.0,74.0,-100.00,SSE,149,5.0,9.0,93,0.00,,,0.27,0.000000,,2013-10-05 03:02:00,
2013-10-04 22:45:00,75.0,73.0,-100.00,SE,134,4.0,9.0,95,0.00,,,0.27,0.000000,,2013-10-05 03:45:00,
2013-10-04 22:55:00,75.0,73.0,-100.00,SE,134,4.0,9.0,95,0.00,,,0.27,0.000000,,2013-10-05 03:55:00,
2013-10-04 23:04:00,75.0,73.0,-100.00,SE,134,4.0,9.0,95,0.00,,,0.27,0.000000,,2013-10-05 04:04:00,
2013-10-04 23:44:00,75.0,73.0,-100.00,SE,135,4.0,9.0,95,0.00,,,0.27,0.000000,,2013-10-05 04:44:00,
2013-10-04 23:53:00,75.0,73.0,-100.00,SE,135,4.0,9.0,95,0.00,,,0.27,0.000000,,2013-10-05 04:53:00,